Aviation Digital Data Service (ADDS)

Output produced by METARs form (1135 UTC 17 June 2019)
found at http://www.aviationweather.gov/metar/data/
 
METAR text: KBUF 171054Z 10004KT 10SM SCT130 BKN250 12/10 A3000 RMK AO2 SLP158 T01220100
Conditions at: KBUF (BUFFALO/CHEEKTOW, NY, US) observed 1054 UTC 17 June 2019
Temperature: 12.2°C (54°F)
Dewpoint: 10.0°C (50°F) [RH = 86%]
Pressure (altimeter): 30.00 inches Hg (1016.0 mb)
[Sea-level pressure: 1015.8 mb]
Winds: from the E (100 degrees) at 5 MPH (4 knots; 2.1 m/s)
Visibility: 10 or more miles (16+ km)
Ceiling: 25000 feet AGL
Clouds: scattered clouds at 13000 feet AGL
broken clouds at 25000 feet AGL
Weather: no significant weather observed at this time

METAR text: KBUF 170954Z 00000KT 10SM FEW110 12/11 A2997 RMK AO2 SLP150 T01220106
Conditions at: KBUF (BUFFALO/CHEEKTOW, NY, US) observed 0954 UTC 17 June 2019
Temperature: 12.2°C (54°F)
Dewpoint: 10.6°C (51°F) [RH = 90%]
Pressure (altimeter): 29.97 inches Hg (1015.0 mb)
[Sea-level pressure: 1015.0 mb]
Winds: calm
Visibility: 10 or more miles (16+ km)
Ceiling: at least 12,000 feet AGL
Clouds: few clouds at 11000 feet AGL
Weather: no significant weather observed at this time

METAR text: KBUF 170854Z 00000KT 10SM CLR 12/10 A2997 RMK AO2 SLP149 T01170100 51007
Conditions at: KBUF (BUFFALO/CHEEKTOW, NY, US) observed 0854 UTC 17 June 2019
Temperature: 11.7°C (53°F)
Dewpoint: 10.0°C (50°F) [RH = 89%]
Pressure (altimeter): 29.97 inches Hg (1015.0 mb)
[Sea-level pressure: 1014.9 mb]
Winds: calm
Visibility: 10 or more miles (16+ km)
Ceiling: at least 12,000 feet AGL
Clouds: sky clear below 12,000 feet AGL
Weather: no significant weather observed at this time

METAR text: KBUF 170754Z 07003KT 10SM SCT120 11/09 A2996 RMK AO2 SLP148 T01110094
Conditions at: KBUF (BUFFALO/CHEEKTOW, NY, US) observed 0754 UTC 17 June 2019
Temperature: 11.1°C (52°F)
Dewpoint: 9.4°C (49°F) [RH = 89%]
Pressure (altimeter): 29.96 inches Hg (1014.6 mb)
[Sea-level pressure: 1014.8 mb]
Winds: from the ENE (70 degrees) at 3 MPH (3 knots; 1.5 m/s)
Visibility: 10 or more miles (16+ km)
Ceiling: at least 12,000 feet AGL
Clouds: scattered clouds at 12000 feet AGL
Weather: no significant weather observed at this time

METAR text: KBUF 170654Z 08003KT 10SM CLR 12/10 A2996 RMK AO2 SLP145 T01170100
Conditions at: KBUF (BUFFALO/CHEEKTOW, NY, US) observed 0654 UTC 17 June 2019
Temperature: 11.7°C (53°F)
Dewpoint: 10.0°C (50°F) [RH = 89%]
Pressure (altimeter): 29.96 inches Hg (1014.6 mb)
[Sea-level pressure: 1014.5 mb]
Winds: from the E (80 degrees) at 3 MPH (3 knots; 1.5 m/s)
Visibility: 10 or more miles (16+ km)
Ceiling: at least 12,000 feet AGL
Clouds: sky clear below 12,000 feet AGL
Weather: no significant weather observed at this time

METAR text: KBUF 170554Z 12003KT 10SM CLR 11/10 A2995 RMK AO2 SLP143 T01110100 10167 20111 50002
Conditions at: KBUF (BUFFALO/CHEEKTOW, NY, US) observed 0554 UTC 17 June 2019
Temperature: 11.1°C (52°F)
Dewpoint: 10.0°C (50°F) [RH = 93%]
Pressure (altimeter): 29.95 inches Hg (1014.3 mb)
[Sea-level pressure: 1014.3 mb]
Winds: from the ESE (120 degrees) at 3 MPH (3 knots; 1.5 m/s)
Visibility: 10 or more miles (16+ km)
Ceiling: at least 12,000 feet AGL
Clouds: sky clear below 12,000 feet AGL
Weather: no significant weather observed at this time

METAR text: KBUF 170454Z 00000KT 10SM CLR 13/11 A2996 RMK AO2 SLP145 T01280106 401720122
Conditions at: KBUF (BUFFALO/CHEEKTOW, NY, US) observed 0454 UTC 17 June 2019
Temperature: 12.8°C (55°F)
Dewpoint: 10.6°C (51°F) [RH = 86%]
Pressure (altimeter): 29.96 inches Hg (1014.6 mb)
[Sea-level pressure: 1014.5 mb]
Winds: calm
Visibility: 10 or more miles (16+ km)
Ceiling: at least 12,000 feet AGL
Clouds: sky clear below 12,000 feet AGL
Weather: no significant weather observed at this time

METAR text: KBUF 170354Z 00000KT 10SM CLR 13/11 A2994 RMK AO2 SLP141 T01280111
Conditions at: KBUF (BUFFALO/CHEEKTOW, NY, US) observed 0354 UTC 17 June 2019
Temperature: 12.8°C (55°F)
Dewpoint: 11.1°C (52°F) [RH = 89%]
Pressure (altimeter): 29.94 inches Hg (1014.0 mb)
[Sea-level pressure: 1014.1 mb]
Winds: calm
Visibility: 10 or more miles (16+ km)
Ceiling: at least 12,000 feet AGL
Clouds: sky clear below 12,000 feet AGL
Weather: no significant weather observed at this time

METAR text: KBUF 170254Z 00000KT 10SM FEW200 14/12 A2994 RMK AO2 SLP140 T01390117 53013
Conditions at: KBUF (BUFFALO/CHEEKTOW, NY, US) observed 0254 UTC 17 June 2019
Temperature: 13.9°C (57°F)
Dewpoint: 11.7°C (53°F) [RH = 87%]
Pressure (altimeter): 29.94 inches Hg (1014.0 mb)
[Sea-level pressure: 1014.0 mb]
Winds: calm
Visibility: 10 or more miles (16+ km)
Ceiling: at least 12,000 feet AGL
Clouds: few clouds at 20000 feet AGL
Weather: no significant weather observed at this time

METAR text: KBUF 170154Z 00000KT 10SM FEW130 FEW200 14/11 A2992 RMK AO2 SLP132 T01390111
Conditions at: KBUF (BUFFALO/CHEEKTOW, NY, US) observed 0154 UTC 17 June 2019
Temperature: 13.9°C (57°F)
Dewpoint: 11.1°C (52°F) [RH = 83%]
Pressure (altimeter): 29.92 inches Hg (1013.3 mb)
[Sea-level pressure: 1013.2 mb]
Winds: calm
Visibility: 10 or more miles (16+ km)
Ceiling: at least 12,000 feet AGL
Clouds: few clouds at 13000 feet AGL
few clouds at 20000 feet AGL
Weather: no significant weather observed at this time

METAR text: KBUF 170054Z 12004KT 10SM SCT130 SCT200 16/12 A2991 RMK AO2 SLP130 T01560117
Conditions at: KBUF (BUFFALO/CHEEKTOW, NY, US) observed 0054 UTC 17 June 2019
Temperature: 15.6°C (60°F)
Dewpoint: 11.7°C (53°F) [RH = 78%]
Pressure (altimeter): 29.91 inches Hg (1013.0 mb)
[Sea-level pressure: 1013.0 mb]
Winds: from the ESE (120 degrees) at 5 MPH (4 knots; 2.1 m/s)
Visibility: 10 or more miles (16+ km)
Ceiling: at least 12,000 feet AGL
Clouds: scattered clouds at 13000 feet AGL
scattered clouds at 20000 feet AGL
Weather: no significant weather observed at this time

METAR text: KBUF 162354Z 07005KT 10SM FEW090 BKN130 17/11 A2990 RMK AO2 SLP126 60000 T01670111 10172 20144 50005
Conditions at: KBUF (BUFFALO/CHEEKTOW, NY, US) observed 2354 UTC 16 June 2019
Temperature: 16.7°C (62°F)
Dewpoint: 11.1°C (52°F) [RH = 70%]
Pressure (altimeter): 29.90 inches Hg (1012.6 mb)
[Sea-level pressure: 1012.6 mb]
Winds: from the ENE (70 degrees) at 6 MPH (5 knots; 2.6 m/s)
Visibility: 10 or more miles (16+ km)
Ceiling: 13000 feet AGL
Clouds: few clouds at 9000 feet AGL
broken clouds at 13000 feet AGL
Weather: no significant weather observed at this time

METAR text: KBUF 162254Z 03003KT 10SM FEW050 BKN090 BKN130 17/11 A2990 RMK AO2 RAE15 SLP126 P0000 T01670111
Conditions at: KBUF (BUFFALO/CHEEKTOW, NY, US) observed 2254 UTC 16 June 2019
Temperature: 16.7°C (62°F)
Dewpoint: 11.1°C (52°F) [RH = 70%]
Pressure (altimeter): 29.90 inches Hg (1012.6 mb)
[Sea-level pressure: 1012.6 mb]
Winds: from the NNE (30 degrees) at 3 MPH (3 knots; 1.5 m/s)
Visibility: 10 or more miles (16+ km)
Ceiling: 9000 feet AGL
Clouds: few clouds at 5000 feet AGL
broken clouds at 9000 feet AGL
broken clouds at 13000 feet AGL
Weather: no significant weather observed at this time

METAR text: KBUF 162154Z 06005KT 10SM -RA BKN049 BKN095 BKN110 17/12 A2989 RMK AO2 RAE26B51 SLP122 P0000 T01670117
Conditions at: KBUF (BUFFALO/CHEEKTOW, NY, US) observed 2154 UTC 16 June 2019
Temperature: 16.7°C (62°F)
Dewpoint: 11.7°C (53°F) [RH = 72%]
Pressure (altimeter): 29.89 inches Hg (1012.3 mb)
[Sea-level pressure: 1012.2 mb]
Winds: from the ENE (60 degrees) at 6 MPH (5 knots; 2.6 m/s)
Visibility: 10 or more miles (16+ km)
Ceiling: 4900 feet AGL
Clouds: broken clouds at 4900 feet AGL
broken clouds at 9500 feet AGL
broken clouds at 11000 feet AGL
Weather: -RA  (light rain)

METAR text: KBUF 162130Z 10005KT 10SM SCT029 BKN037 17/12 A2988 RMK AO2 RAE26 P0000 T01670122
Conditions at: KBUF (BUFFALO/CHEEKTOW, NY, US) observed 2130 UTC 16 June 2019
Temperature: 16.7°C (62°F)
Dewpoint: 12.2°C (54°F) [RH = 75%]
Pressure (altimeter): 29.88 inches Hg (1011.9 mb)
Winds: from the E (100 degrees) at 6 MPH (5 knots; 2.6 m/s)
Visibility: 10 or more miles (16+ km)
Ceiling: 3700 feet AGL
Clouds: scattered clouds at 2900 feet AGL
broken clouds at 3700 feet AGL
Weather: no significant weather observed at this time

METAR text: KBUF 162054Z 09006KT 10SM -RA OVC029 17/11 A2989 RMK AO2 RAB53 SLP121 P0000 60000 T01670111 50004
Conditions at: KBUF (BUFFALO/CHEEKTOW, NY, US) observed 2054 UTC 16 June 2019
Temperature: 16.7°C (62°F)
Dewpoint: 11.1°C (52°F) [RH = 70%]
Pressure (altimeter): 29.89 inches Hg (1012.3 mb)
[Sea-level pressure: 1012.1 mb]
Winds: from the E (90 degrees) at 7 MPH (6 knots; 3.1 m/s)
Visibility: 10 or more miles (16+ km)
Ceiling: 2900 feet AGL
Clouds: overcast cloud deck at 2900 feet AGL
Weather: -RA  (light rain)

METAR text: KBUF 161954Z 05008KT 10SM FEW010 SCT014 BKN025 OVC140 16/11 A2989 RMK AO2 RAE41 SLP122 P0000 T01610111
Conditions at: KBUF (BUFFALO/CHEEKTOW, NY, US) observed 1954 UTC 16 June 2019
Temperature: 16.1°C (61°F)
Dewpoint: 11.1°C (52°F) [RH = 72%]
Pressure (altimeter): 29.89 inches Hg (1012.3 mb)
[Sea-level pressure: 1012.2 mb]
Winds: from the NE (50 degrees) at 9 MPH (8 knots; 4.1 m/s)
Visibility: 10 or more miles (16+ km)
Ceiling: 2500 feet AGL
Clouds: few clouds at 1000 feet AGL
scattered clouds at 1400 feet AGL
broken clouds at 2500 feet AGL
overcast cloud deck at 14000 feet AGL
Weather: no significant weather observed at this time

METAR text: KBUF 161854Z 07006KT 10SM -RA FEW008 BKN023 OVC050 15/12 A2988 RMK AO2 RAB48 SLP117 PCPN VRY LGT P0000 T01500122
Conditions at: KBUF (BUFFALO/CHEEKTOW, NY, US) observed 1854 UTC 16 June 2019
Temperature: 15.0°C (59°F)
Dewpoint: 12.2°C (54°F) [RH = 83%]
Pressure (altimeter): 29.88 inches Hg (1011.9 mb)
[Sea-level pressure: 1011.7 mb]
Winds: from the ENE (70 degrees) at 7 MPH (6 knots; 3.1 m/s)
Visibility: 10 or more miles (16+ km)
Ceiling: 2300 feet AGL
Clouds: few clouds at 800 feet AGL
broken clouds at 2300 feet AGL
overcast cloud deck at 5000 feet AGL
Weather: -RA  (light rain)

METAR text: KBUF 161754Z 05007KT 10SM SCT010 BKN022 OVC050 14/12 A2988 RMK AO2 RAE38 SLP116 P0000 60005 T01440122 10150 20122 51008
Conditions at: KBUF (BUFFALO/CHEEKTOW, NY, US) observed 1754 UTC 16 June 2019
Temperature: 14.4°C (58°F)
Dewpoint: 12.2°C (54°F) [RH = 87%]
Pressure (altimeter): 29.88 inches Hg (1011.9 mb)
[Sea-level pressure: 1011.6 mb]
Winds: from the NE (50 degrees) at 8 MPH (7 knots; 3.6 m/s)
Visibility: 10 or more miles (16+ km)
Ceiling: 2200 feet AGL
Clouds: scattered clouds at 1000 feet AGL
broken clouds at 2200 feet AGL
overcast cloud deck at 5000 feet AGL
Weather: no significant weather observed at this time

METAR text: KBUF 161654Z 05009KT 10SM -RA FEW008 BKN021 OVC036 14/11 A2987 RMK AO2 SLP116 PCPN VRY LGT P0000 T01390111
Conditions at: KBUF (BUFFALO/CHEEKTOW, NY, US) observed 1654 UTC 16 June 2019
Temperature: 13.9°C (57°F)
Dewpoint: 11.1°C (52°F) [RH = 83%]
Pressure (altimeter): 29.87 inches Hg (1011.6 mb)
[Sea-level pressure: 1011.6 mb]
Winds: from the NE (50 degrees) at 10 MPH (9 knots; 4.6 m/s)
Visibility: 10 or more miles (16+ km)
Ceiling: 2100 feet AGL
Clouds: few clouds at 800 feet AGL
broken clouds at 2100 feet AGL
overcast cloud deck at 3600 feet AGL
Weather: -RA  (light rain)

METAR text: KBUF 161636Z 07011KT 10SM -RA SCT007 BKN019 OVC035 14/12 A2986 RMK AO2 PCPN VRY LGT P0000 T01390117
Conditions at: KBUF (BUFFALO/CHEEKTOW, NY, US) observed 1636 UTC 16 June 2019
Temperature: 13.9°C (57°F)
Dewpoint: 11.7°C (53°F) [RH = 87%]
Pressure (altimeter): 29.86 inches Hg (1011.3 mb)
Winds: from the ENE (70 degrees) at 13 MPH (11 knots; 5.7 m/s)
Visibility: 10 or more miles (16+ km)
Ceiling: 1900 feet AGL
Clouds: scattered clouds at 700 feet AGL
broken clouds at 1900 feet AGL
overcast cloud deck at 3500 feet AGL
Weather: -RA  (light rain)

METAR text: KBUF 161554Z 07009KT 3SM -RA BR BKN005 BKN030 OVC039 13/12 A2985 RMK AO2 DZE1459RAB1459 SLP109 P0004 T01330117
Conditions at: KBUF (BUFFALO/CHEEKTOW, NY, US) observed 1554 UTC 16 June 2019
Temperature: 13.3°C (56°F)
Dewpoint: 11.7°C (53°F) [RH = 90%]
Pressure (altimeter): 29.85 inches Hg (1010.9 mb)
[Sea-level pressure: 1010.9 mb]
Winds: from the ENE (70 degrees) at 10 MPH (9 knots; 4.6 m/s)
Visibility: 3 miles ( 5 km)
Ceiling: 500 feet AGL
Clouds: broken clouds at 500 feet AGL
broken clouds at 3000 feet AGL
overcast cloud deck at 3900 feet AGL
Weather: -RA BR  (light rain, mist)

METAR text: KBUF 161547Z 06010KT 2 1/2SM -RA BR BKN005 OVC025 13/12 A2986 RMK AO2 DZE1459RAB1459 P0004 T01330117
Conditions at: KBUF (BUFFALO/CHEEKTOW, NY, US) observed 1547 UTC 16 June 2019
Temperature: 13.3°C (56°F)
Dewpoint: 11.7°C (53°F) [RH = 90%]
Pressure (altimeter): 29.86 inches Hg (1011.3 mb)
Winds: from the ENE (60 degrees) at 12 MPH (10 knots; 5.1 m/s)
Visibility: 2.50 miles (4.02 km)
Ceiling: 500 feet AGL
Clouds: broken clouds at 500 feet AGL
overcast cloud deck at 2500 feet AGL
Weather: -RA BR  (light rain, mist)

METAR text: KBUF 161530Z 04008KT 3SM -RA BR BKN005 OVC019 13/11 A2986 RMK AO2 DZE1459RAB1459 P0002 T01280111
Conditions at: KBUF (BUFFALO/CHEEKTOW, NY, US) observed 1530 UTC 16 June 2019
Temperature: 12.8°C (55°F)
Dewpoint: 11.1°C (52°F) [RH = 89%]
Pressure (altimeter): 29.86 inches Hg (1011.3 mb)
Winds: from the NE (40 degrees) at 9 MPH (8 knots; 4.1 m/s)
Visibility: 3 miles ( 5 km)
Ceiling: 500 feet AGL
Clouds: broken clouds at 500 feet AGL
overcast cloud deck at 1900 feet AGL
Weather: -RA BR  (light rain, mist)

METAR text: KBUF 161521Z 04009KT 2 1/2SM -RA BR BKN006 OVC019 13/12 A2986 RMK AO2 DZE1459RAB1459 P0002 T01280117
Conditions at: KBUF (BUFFALO/CHEEKTOW, NY, US) observed 1521 UTC 16 June 2019
Temperature: 12.8°C (55°F)
Dewpoint: 11.7°C (53°F) [RH = 93%]
Pressure (altimeter): 29.86 inches Hg (1011.3 mb)
Winds: from the NE (40 degrees) at 10 MPH (9 knots; 4.6 m/s)
Visibility: 2.50 miles (4.02 km)
Ceiling: 600 feet AGL
Clouds: broken clouds at 600 feet AGL
overcast cloud deck at 1900 feet AGL
Weather: -RA BR  (light rain, mist)

METAR text: KBUF 161513Z 04008KT 2SM -RA BR BKN004 BKN008 OVC020 13/12 A2986 RMK AO2 DZE1459RAB1459 P0001 T01280117
Conditions at: KBUF (BUFFALO/CHEEKTOW, NY, US) observed 1513 UTC 16 June 2019
Temperature: 12.8°C (55°F)
Dewpoint: 11.7°C (53°F) [RH = 93%]
Pressure (altimeter): 29.86 inches Hg (1011.3 mb)
Winds: from the NE (40 degrees) at 9 MPH (8 knots; 4.1 m/s)
Visibility: 2.00 miles (3.22 km)
Ceiling: 400 feet AGL
Clouds: broken clouds at 400 feet AGL
broken clouds at 800 feet AGL
overcast cloud deck at 2000 feet AGL
Weather: -RA BR  (light rain, mist)

METAR text: KBUF 161503Z 04010KT 1 1/4SM RA BR BKN005 OVC021 13/11 A2985 RMK AO2 DZE1459RAB1459 P0000 T01280111
Conditions at: KBUF (BUFFALO/CHEEKTOW, NY, US) observed 1503 UTC 16 June 2019
Temperature: 12.8°C (55°F)
Dewpoint: 11.1°C (52°F) [RH = 89%]
Pressure (altimeter): 29.85 inches Hg (1010.9 mb)
Winds: from the NE (40 degrees) at 12 MPH (10 knots; 5.1 m/s)
Visibility: 1.25 miles (2.01 km)
Ceiling: 500 feet AGL
Clouds: broken clouds at 500 feet AGL
overcast cloud deck at 2100 feet AGL
Weather: RA BR  (moderate rain, mist)

METAR text: KBUF 161454Z 04009KT 2 1/2SM R23/6000VP6000FT -DZ BR SCT006 OVC021 12/11 A2985 RMK AO2 SLP109 P0000 60001 T01220111 51011
Conditions at: KBUF (BUFFALO/CHEEKTOW, NY, US) observed 1454 UTC 16 June 2019
Temperature: 12.2°C (54°F)
Dewpoint: 11.1°C (52°F) [RH = 93%]
Pressure (altimeter): 29.85 inches Hg (1010.9 mb)
[Sea-level pressure: 1010.9 mb]
Winds: from the NE (40 degrees) at 10 MPH (9 knots; 4.6 m/s)
Visibility: 2.50 miles (4.02 km)
Ceiling: 2100 feet AGL
Clouds: scattered clouds at 600 feet AGL
overcast cloud deck at 2100 feet AGL
Weather: -DZ BR  (light drizzle, mist)

METAR text: KBUF 161404Z 04011KT 10SM -DZ FEW006 BKN015 OVC019 12/11 A2984 RMK AO2 P0000 T01220106
Conditions at: KBUF (BUFFALO/CHEEKTOW, NY, US) observed 1404 UTC 16 June 2019
Temperature: 12.2°C (54°F)
Dewpoint: 10.6°C (51°F) [RH = 90%]
Pressure (altimeter): 29.84 inches Hg (1010.6 mb)
Winds: from the NE (40 degrees) at 13 MPH (11 knots; 5.7 m/s)
Visibility: 10 or more miles (16+ km)
Ceiling: 1500 feet AGL
Clouds: few clouds at 600 feet AGL
broken clouds at 1500 feet AGL
overcast cloud deck at 1900 feet AGL
Weather: -DZ  (light drizzle)

METAR text: KBUF 161354Z 04012KT 10SM -DZ FEW003 BKN005 OVC013 12/11 A2984 RMK AO2 RAE53DZB53 SLP105 P0001 T01220106
Conditions at: KBUF (BUFFALO/CHEEKTOW, NY, US) observed 1354 UTC 16 June 2019
Temperature: 12.2°C (54°F)
Dewpoint: 10.6°C (51°F) [RH = 90%]
Pressure (altimeter): 29.84 inches Hg (1010.6 mb)
[Sea-level pressure: 1010.5 mb]
Winds: from the NE (40 degrees) at 14 MPH (12 knots; 6.2 m/s)
Visibility: 10 or more miles (16+ km)
Ceiling: 500 feet AGL
Clouds: few clouds at 300 feet AGL
broken clouds at 500 feet AGL
overcast cloud deck at 1300 feet AGL
Weather: -DZ  (light drizzle)

METAR text: KBUF 161343Z 04012KT 7SM -RA FEW003 OVC005 13/11 A2984 RMK AO2 P0001 T01280111
Conditions at: KBUF (BUFFALO/CHEEKTOW, NY, US) observed 1343 UTC 16 June 2019
Temperature: 12.8°C (55°F)
Dewpoint: 11.1°C (52°F) [RH = 89%]
Pressure (altimeter): 29.84 inches Hg (1010.6 mb)
Winds: from the NE (40 degrees) at 14 MPH (12 knots; 6.2 m/s)
Visibility: 7 miles (11 km)
Ceiling: 500 feet AGL
Clouds: few clouds at 300 feet AGL
overcast cloud deck at 500 feet AGL
Weather: -RA  (light rain)

METAR text: KBUF 161331Z 04011KT 2SM -RA BR OVC005 13/12 A2984 RMK AO2 CIG 003V007 P0001 T01330117
Conditions at: KBUF (BUFFALO/CHEEKTOW, NY, US) observed 1331 UTC 16 June 2019
Temperature: 13.3°C (56°F)
Dewpoint: 11.7°C (53°F) [RH = 90%]
Pressure (altimeter): 29.84 inches Hg (1010.6 mb)
Winds: from the NE (40 degrees) at 13 MPH (11 knots; 5.7 m/s)
Visibility: 2.00 miles (3.22 km)
Ceiling: 500 feet AGL
Clouds: overcast cloud deck at 500 feet AGL
Weather: -RA BR  (light rain, mist)

METAR text: KBUF 161316Z 04011KT 2SM -RA BR OVC003 13/12 A2984 RMK AO2 P0001 T01330117
Conditions at: KBUF (BUFFALO/CHEEKTOW, NY, US) observed 1316 UTC 16 June 2019
Temperature: 13.3°C (56°F)
Dewpoint: 11.7°C (53°F) [RH = 90%]
Pressure (altimeter): 29.84 inches Hg (1010.6 mb)
Winds: from the NE (40 degrees) at 13 MPH (11 knots; 5.7 m/s)
Visibility: 2.00 miles (3.22 km)
Ceiling: 300 feet AGL
Clouds: overcast cloud deck at 300 feet AGL
Weather: -RA BR  (light rain, mist)

METAR text: KBUF 161254Z 04010KT 1 3/4SM R23/5000VP6000FT -RA BR OVC003 13/12 A2983 RMK AO2 SLP101 P0000 T01330122
Conditions at: KBUF (BUFFALO/CHEEKTOW, NY, US) observed 1254 UTC 16 June 2019
Temperature: 13.3°C (56°F)
Dewpoint: 12.2°C (54°F) [RH = 93%]
Pressure (altimeter): 29.83 inches Hg (1010.2 mb)
[Sea-level pressure: 1010.1 mb]
Winds: from the NE (40 degrees) at 12 MPH (10 knots; 5.1 m/s)
Visibility: 1.75 miles (2.82 km)
Ceiling: 300 feet AGL
Clouds: overcast cloud deck at 300 feet AGL
Weather: -RA BR  (light rain, mist)

METAR text: KBUF 161154Z 04008KT 1 1/2SM -RA BR OVC002 14/13 A2982 RMK AO2 SLP097 P0000 60001 70114 T01390128 10167 20139 56005
Conditions at: KBUF (BUFFALO/CHEEKTOW, NY, US) observed 1154 UTC 16 June 2019
Temperature: 13.9°C (57°F)
Dewpoint: 12.8°C (55°F) [RH = 93%]
Pressure (altimeter): 29.82 inches Hg (1009.9 mb)
[Sea-level pressure: 1009.7 mb]
Winds: from the NE (40 degrees) at 9 MPH (8 knots; 4.1 m/s)
Visibility: 1.50 miles (2.41 km)
Ceiling: 200 feet AGL
Clouds: overcast cloud deck at 200 feet AGL
Weather: -RA BR  (light rain, mist)

METAR text: KBUF 161054Z 05007KT 1 1/2SM -RA BR OVC002 14/13 A2983 RMK AO2 SLP100 P0001 T01390133
Conditions at: KBUF (BUFFALO/CHEEKTOW, NY, US) observed 1054 UTC 16 June 2019
Temperature: 13.9°C (57°F)
Dewpoint: 13.3°C (56°F) [RH = 96%]
Pressure (altimeter): 29.83 inches Hg (1010.2 mb)
[Sea-level pressure: 1010.0 mb]
Winds: from the NE (50 degrees) at 8 MPH (7 knots; 3.6 m/s)
Visibility: 1.50 miles (2.41 km)
Ceiling: 200 feet AGL
Clouds: overcast cloud deck at 200 feet AGL
Weather: -RA BR  (light rain, mist)

METAR text: KBUF 161029Z 04008KT 2SM -RA BR OVC002 14/13 A2983 RMK AO2 P0000 T01390133
Conditions at: KBUF (BUFFALO/CHEEKTOW, NY, US) observed 1029 UTC 16 June 2019
Temperature: 13.9°C (57°F)
Dewpoint: 13.3°C (56°F) [RH = 96%]
Pressure (altimeter): 29.83 inches Hg (1010.2 mb)
Winds: from the NE (40 degrees) at 9 MPH (8 knots; 4.1 m/s)
Visibility: 2.00 miles (3.22 km)
Ceiling: 200 feet AGL
Clouds: overcast cloud deck at 200 feet AGL
Weather: -RA BR  (light rain, mist)

METAR text: KBUF 161001Z 04007KT 3SM -RA BR OVC002 14/13 A2982 RMK AO2 P0000 T01390133
Conditions at: KBUF (BUFFALO/CHEEKTOW, NY, US) observed 1001 UTC 16 June 2019
Temperature: 13.9°C (57°F)
Dewpoint: 13.3°C (56°F) [RH = 96%]
Pressure (altimeter): 29.82 inches Hg (1009.9 mb)
Winds: from the NE (40 degrees) at 8 MPH (7 knots; 3.6 m/s)
Visibility: 3 miles ( 5 km)
Ceiling: 200 feet AGL
Clouds: overcast cloud deck at 200 feet AGL
Weather: -RA BR  (light rain, mist)

METAR text: KBUF 160954Z 04009KT 2 1/2SM -RA BR OVC002 14/13 A2982 RMK AO2 RAB12 SLP099 P0000 T01390133
Conditions at: KBUF (BUFFALO/CHEEKTOW, NY, US) observed 0954 UTC 16 June 2019
Temperature: 13.9°C (57°F)
Dewpoint: 13.3°C (56°F) [RH = 96%]
Pressure (altimeter): 29.82 inches Hg (1009.9 mb)
[Sea-level pressure: 1009.9 mb]
Winds: from the NE (40 degrees) at 10 MPH (9 knots; 4.6 m/s)
Visibility: 2.50 miles (4.02 km)
Ceiling: 200 feet AGL
Clouds: overcast cloud deck at 200 feet AGL
Weather: -RA BR  (light rain, mist)

METAR text: KBUF 160946Z 05006KT 2 1/2SM -RA BR OVC002 14/13 A2983 RMK AO2 RAB12 P0000 T01390133
Conditions at: KBUF (BUFFALO/CHEEKTOW, NY, US) observed 0946 UTC 16 June 2019
Temperature: 13.9°C (57°F)
Dewpoint: 13.3°C (56°F) [RH = 96%]
Pressure (altimeter): 29.83 inches Hg (1010.2 mb)
Winds: from the NE (50 degrees) at 7 MPH (6 knots; 3.1 m/s)
Visibility: 2.50 miles (4.02 km)
Ceiling: 200 feet AGL
Clouds: overcast cloud deck at 200 feet AGL
Weather: -RA BR  (light rain, mist)

METAR text: KBUF 160931Z 04007KT 1 1/4SM -RA BR OVC002 14/13 A2983 RMK AO2 RAB12 P0000 T01440133
Conditions at: KBUF (BUFFALO/CHEEKTOW, NY, US) observed 0931 UTC 16 June 2019
Temperature: 14.4°C (58°F)
Dewpoint: 13.3°C (56°F) [RH = 93%]
Pressure (altimeter): 29.83 inches Hg (1010.2 mb)
Winds: from the NE (40 degrees) at 8 MPH (7 knots; 3.6 m/s)
Visibility: 1.25 miles (2.01 km)
Ceiling: 200 feet AGL
Clouds: overcast cloud deck at 200 feet AGL
Weather: -RA BR  (light rain, mist)

METAR text: KBUF 160854Z 03005KT 1SM R23/3500VP6000FT BR OVC001 14/13 A2983 RMK AO2 SLP102 60000 T01440133 56010
Conditions at: KBUF (BUFFALO/CHEEKTOW, NY, US) observed 0854 UTC 16 June 2019
Temperature: 14.4°C (58°F)
Dewpoint: 13.3°C (56°F) [RH = 93%]
Pressure (altimeter): 29.83 inches Hg (1010.2 mb)
[Sea-level pressure: 1010.2 mb]
Winds: from the NNE (30 degrees) at 6 MPH (5 knots; 2.6 m/s)
Visibility: 1.00 miles (1.61 km)
Ceiling: 100 feet AGL
Clouds: overcast cloud deck at 100 feet AGL
Weather: BR  (mist)

METAR text: KBUF 160849Z 04007KT 1SM R23/6000VP6000FT BR OVC001 14/13 A2983 RMK AO2
Conditions at: KBUF (BUFFALO/CHEEKTOW, NY, US) observed 0849 UTC 16 June 2019
Temperature: 14.0°C (57°F)
Dewpoint: 13.0°C (55°F) [RH = 94%]
Pressure (altimeter): 29.83 inches Hg (1010.2 mb)
Winds: from the NE (40 degrees) at 8 MPH (7 knots; 3.6 m/s)
Visibility: 1.00 miles (1.61 km)
Ceiling: 100 feet AGL
Clouds: overcast cloud deck at 100 feet AGL
Weather: BR  (mist)

METAR text: KBUF 160818Z 04009KT 1 1/2SM BR OVC002 14/13 A2983 RMK AO2 T01440133
Conditions at: KBUF (BUFFALO/CHEEKTOW, NY, US) observed 0818 UTC 16 June 2019
Temperature: 14.4°C (58°F)
Dewpoint: 13.3°C (56°F) [RH = 93%]
Pressure (altimeter): 29.83 inches Hg (1010.2 mb)
Winds: from the NE (40 degrees) at 10 MPH (9 knots; 4.6 m/s)
Visibility: 1.50 miles (2.41 km)
Ceiling: 200 feet AGL
Clouds: overcast cloud deck at 200 feet AGL
Weather: BR  (mist)

METAR text: KBUF 160754Z 04006KT 1 1/2SM R23/6000VP6000FT BR OVC001 14/14 A2984 RMK AO2 SLP104 T01440139
Conditions at: KBUF (BUFFALO/CHEEKTOW, NY, US) observed 0754 UTC 16 June 2019
Temperature: 14.4°C (58°F)
Dewpoint: 13.9°C (57°F) [RH = 97%]
Pressure (altimeter): 29.84 inches Hg (1010.6 mb)
[Sea-level pressure: 1010.4 mb]
Winds: from the NE (40 degrees) at 7 MPH (6 knots; 3.1 m/s)
Visibility: 1.50 miles (2.41 km)
Ceiling: 100 feet AGL
Clouds: overcast cloud deck at 100 feet AGL
Weather: BR  (mist)

METAR text: KBUF 160746Z 03008KT 1 1/2SM BR OVC001 14/14 A2984 RMK AO2 T01440139
Conditions at: KBUF (BUFFALO/CHEEKTOW, NY, US) observed 0746 UTC 16 June 2019
Temperature: 14.4°C (58°F)
Dewpoint: 13.9°C (57°F) [RH = 97%]
Pressure (altimeter): 29.84 inches Hg (1010.6 mb)
Winds: from the NNE (30 degrees) at 9 MPH (8 knots; 4.1 m/s)
Visibility: 1.50 miles (2.41 km)
Ceiling: 100 feet AGL
Clouds: overcast cloud deck at 100 feet AGL
Weather: BR  (mist)

METAR text: KBUF 160715Z 02008KT 3SM BR OVC002 15/14 A2985 RMK AO2 T01500139
Conditions at: KBUF (BUFFALO/CHEEKTOW, NY, US) observed 0715 UTC 16 June 2019
Temperature: 15.0°C (59°F)
Dewpoint: 13.9°C (57°F) [RH = 93%]
Pressure (altimeter): 29.85 inches Hg (1010.9 mb)
Winds: from the NNE (20 degrees) at 9 MPH (8 knots; 4.1 m/s)
Visibility: 3 miles ( 5 km)
Ceiling: 200 feet AGL
Clouds: overcast cloud deck at 200 feet AGL
Weather: BR  (mist)

METAR text: KBUF 160654Z 02009KT 2SM BR OVC002 16/14 A2985 RMK AO2 RAE15 SLP108 P0000 T01560144
Conditions at: KBUF (BUFFALO/CHEEKTOW, NY, US) observed 0654 UTC 16 June 2019
Temperature: 15.6°C (60°F)
Dewpoint: 14.4°C (58°F) [RH = 93%]
Pressure (altimeter): 29.85 inches Hg (1010.9 mb)
[Sea-level pressure: 1010.8 mb]
Winds: from the NNE (20 degrees) at 10 MPH (9 knots; 4.6 m/s)
Visibility: 2.00 miles (3.22 km)
Ceiling: 200 feet AGL
Clouds: overcast cloud deck at 200 feet AGL
Weather: BR  (mist)

METAR text: KBUF 160641Z 03009KT 2SM BR OVC002 16/15 A2985 RMK AO2 RAE15 P0000 T01610150
Conditions at: KBUF (BUFFALO/CHEEKTOW, NY, US) observed 0641 UTC 16 June 2019
Temperature: 16.1°C (61°F)
Dewpoint: 15.0°C (59°F) [RH = 93%]
Pressure (altimeter): 29.85 inches Hg (1010.9 mb)
Winds: from the NNE (30 degrees) at 10 MPH (9 knots; 4.6 m/s)
Visibility: 2.00 miles (3.22 km)
Ceiling: 200 feet AGL
Clouds: overcast cloud deck at 200 feet AGL
Weather: BR  (mist)

METAR text: KBUF 160554Z 33006KT 3SM -RA BR BKN004 OVC008 17/16 A2986 RMK AO2 CIG 002V007 SLP111 PCPN VRY LGT P0006 60070 T01670156 10172 20161 56005
Conditions at: KBUF (BUFFALO/CHEEKTOW, NY, US) observed 0554 UTC 16 June 2019
Temperature: 16.7°C (62°F)
Dewpoint: 15.6°C (60°F) [RH = 93%]
Pressure (altimeter): 29.86 inches Hg (1011.3 mb)
[Sea-level pressure: 1011.1 mb]
Winds: from the NNW (330 degrees) at 7 MPH (6 knots; 3.1 m/s)
Visibility: 3 miles ( 5 km)
Ceiling: 400 feet AGL
Clouds: broken clouds at 400 feet AGL
overcast cloud deck at 800 feet AGL
Weather: -RA BR  (light rain, mist)

METAR text: KBUF 160545Z 34008KT 3SM -RA BR OVC004 17/16 A2987 RMK AO2 CIG 002V008 PCPN VRY LGT P0005 T01720156
Conditions at: KBUF (BUFFALO/CHEEKTOW, NY, US) observed 0545 UTC 16 June 2019
Temperature: 17.2°C (63°F)
Dewpoint: 15.6°C (60°F) [RH = 90%]
Pressure (altimeter): 29.87 inches Hg (1011.6 mb)
Winds: from the NNW (340 degrees) at 9 MPH (8 knots; 4.1 m/s)
Visibility: 3 miles ( 5 km)
Ceiling: 400 feet AGL
Clouds: overcast cloud deck at 400 feet AGL
Weather: -RA BR  (light rain, mist)

METAR text: KBUF 160454Z 24004KT 2SM RA BR BKN004 BKN011 OVC017 17/16 A2987 RMK AO2 SLP111 P0013 T01720161 402170156
Conditions at: KBUF (BUFFALO/CHEEKTOW, NY, US) observed 0454 UTC 16 June 2019
Temperature: 17.2°C (63°F)
Dewpoint: 16.1°C (61°F) [RH = 93%]
Pressure (altimeter): 29.87 inches Hg (1011.6 mb)
[Sea-level pressure: 1011.1 mb]
Winds: from the WSW (240 degrees) at 5 MPH (4 knots; 2.1 m/s)
Visibility: 2.00 miles (3.22 km)
Ceiling: 400 feet AGL
Clouds: broken clouds at 400 feet AGL
broken clouds at 1100 feet AGL
overcast cloud deck at 1700 feet AGL
Weather: RA BR  (moderate rain, mist)

METAR text: KBUF 160401Z 25006KT 2SM RA BR BKN004 BKN022 OVC034 17/16 A2987 RMK AO2 P0002 T01720161
Conditions at: KBUF (BUFFALO/CHEEKTOW, NY, US) observed 0401 UTC 16 June 2019
Temperature: 17.2°C (63°F)
Dewpoint: 16.1°C (61°F) [RH = 93%]
Pressure (altimeter): 29.87 inches Hg (1011.6 mb)
Winds: from the WSW (250 degrees) at 7 MPH (6 knots; 3.1 m/s)
Visibility: 2.00 miles (3.22 km)
Ceiling: 400 feet AGL
Clouds: broken clouds at 400 feet AGL
broken clouds at 2200 feet AGL
overcast cloud deck at 3400 feet AGL
Weather: RA BR  (moderate rain, mist)

METAR text: KBUF 160354Z 25006KT 1 1/2SM RA BR BKN004 BKN015 OVC020 17/16 A2987 RMK AO2 SLP114 P0022 T01670161
Conditions at: KBUF (BUFFALO/CHEEKTOW, NY, US) observed 0354 UTC 16 June 2019
Temperature: 16.7°C (62°F)
Dewpoint: 16.1°C (61°F) [RH = 96%]
Pressure (altimeter): 29.87 inches Hg (1011.6 mb)
[Sea-level pressure: 1011.4 mb]
Winds: from the WSW (250 degrees) at 7 MPH (6 knots; 3.1 m/s)
Visibility: 1.50 miles (2.41 km)
Ceiling: 400 feet AGL
Clouds: broken clouds at 400 feet AGL
broken clouds at 1500 feet AGL
overcast cloud deck at 2000 feet AGL
Weather: RA BR  (moderate rain, mist)

METAR text: KBUF 160254Z 25006KT 2SM RA BR BKN004 OVC019 17/16 A2988 RMK AO2 SLP117 P0012 60029 T01670156 53004
Conditions at: KBUF (BUFFALO/CHEEKTOW, NY, US) observed 0254 UTC 16 June 2019
Temperature: 16.7°C (62°F)
Dewpoint: 15.6°C (60°F) [RH = 93%]
Pressure (altimeter): 29.88 inches Hg (1011.9 mb)
[Sea-level pressure: 1011.7 mb]
Winds: from the WSW (250 degrees) at 7 MPH (6 knots; 3.1 m/s)
Visibility: 2.00 miles (3.22 km)
Ceiling: 400 feet AGL
Clouds: broken clouds at 400 feet AGL
overcast cloud deck at 1900 feet AGL
Weather: RA BR  (moderate rain, mist)

METAR text: KBUF 160154Z 24010KT 3SM RA BR OVC004 16/15 A2987 RMK AO2 SLP114 P0007 T01610150
Conditions at: KBUF (BUFFALO/CHEEKTOW, NY, US) observed 0154 UTC 16 June 2019
Temperature: 16.1°C (61°F)
Dewpoint: 15.0°C (59°F) [RH = 93%]
Pressure (altimeter): 29.87 inches Hg (1011.6 mb)
[Sea-level pressure: 1011.4 mb]
Winds: from the WSW (240 degrees) at 12 MPH (10 knots; 5.1 m/s)
Visibility: 3 miles ( 5 km)
Ceiling: 400 feet AGL
Clouds: overcast cloud deck at 400 feet AGL
Weather: RA BR  (moderate rain, mist)

METAR text: KBUF 160054Z 24009KT 4SM -RA BR BKN004 OVC010 17/16 A2986 RMK AO2 SLP111 P0010 T01670156
Conditions at: KBUF (BUFFALO/CHEEKTOW, NY, US) observed 0054 UTC 16 June 2019
Temperature: 16.7°C (62°F)
Dewpoint: 15.6°C (60°F) [RH = 93%]
Pressure (altimeter): 29.86 inches Hg (1011.3 mb)
[Sea-level pressure: 1011.1 mb]
Winds: from the WSW (240 degrees) at 10 MPH (9 knots; 4.6 m/s)
Visibility: 4 miles ( 6 km)
Ceiling: 400 feet AGL
Clouds: broken clouds at 400 feet AGL
overcast cloud deck at 1000 feet AGL
Weather: -RA BR  (light rain, mist)

METAR text: KBUF 160019Z 24010KT 2SM RA BR OVC004 17/16 A2986 RMK AO2 CIG 003V008 P0007 T01670156
Conditions at: KBUF (BUFFALO/CHEEKTOW, NY, US) observed 0019 UTC 16 June 2019
Temperature: 16.7°C (62°F)
Dewpoint: 15.6°C (60°F) [RH = 93%]
Pressure (altimeter): 29.86 inches Hg (1011.3 mb)
Winds: from the WSW (240 degrees) at 12 MPH (10 knots; 5.1 m/s)
Visibility: 2.00 miles (3.22 km)
Ceiling: 400 feet AGL
Clouds: overcast cloud deck at 400 feet AGL
Weather: RA BR  (moderate rain, mist)

METAR text: KBUF 152354Z 24009KT 2 1/2SM -RA BR BKN005 OVC009 17/16 A2987 RMK AO2 SLP113 P0033 60043 T01670156 10206 20156 55005
Conditions at: KBUF (BUFFALO/CHEEKTOW, NY, US) observed 2354 UTC 15 June 2019
Temperature: 16.7°C (62°F)
Dewpoint: 15.6°C (60°F) [RH = 93%]
Pressure (altimeter): 29.87 inches Hg (1011.6 mb)
[Sea-level pressure: 1011.3 mb]
Winds: from the WSW (240 degrees) at 10 MPH (9 knots; 4.6 m/s)
Visibility: 2.50 miles (4.02 km)
Ceiling: 500 feet AGL
Clouds: broken clouds at 500 feet AGL
overcast cloud deck at 900 feet AGL
Weather: -RA BR  (light rain, mist)

Forecast for: KBUF (BUFFALO/CHEEKTOW, NY, US)
Text: KBUF 171120Z 1712/1812 12005KT P6SM BKN100
Forecast period: 1200 to 1600 UTC 17 June 2019
Forecast type: FROM: standard forecast or significant change
Winds: from the ESE (120 degrees) at 6 MPH (5 knots; 2.6 m/s)
Visibility: 6 or more miles 10+ km)
Ceiling: 10000 feet AGL
Clouds: broken clouds at 10000 feet AGL
Weather: no significant weather forecast for this period
Text: FM171600 07007KT P6SM BKN090
Forecast period: 1600 UTC 17 June 2019 to 0200 UTC 18 June 2019
Forecast type: FROM: standard forecast or significant change
Winds: from the ENE (70 degrees) at 8 MPH (7 knots; 3.6 m/s)
Visibility: 6 or more miles 10+ km)
Ceiling: 9000 feet AGL
Clouds: broken clouds at 9000 feet AGL
Weather: no significant weather forecast for this period
Text: FM180200 06004KT P6SM BKN060
Forecast period: 0200 to 1200 UTC 18 June 2019
Forecast type: FROM: standard forecast or significant change
Winds: from the ENE (60 degrees) at 5 MPH (4 knots; 2.1 m/s)
Visibility: 6 or more miles 10+ km)
Ceiling: 6000 feet AGL
Clouds: broken clouds at 6000 feet AGL
Weather: no significant weather forecast for this period